Аэропорт: Аулие-Ата. Тараз

ICAO: UADD

METAR:
2019/01/21 23:00
UADD 212300Z 22002MPS 8000 BKN046 OVC100 M01/M02 Q1023 R13/19//60 NOSIG RMK QFE710/0947
METAR:
2019/01/06 00:06
TAF TAF UADD 052300Z 0500/0609 18005MPS 1000 BR BKN003 OVC020 
      TEMPO 0600/0606 0200 FZFG VV001